Time;durP1;ratioP1;P1;durP2;ratioP2;P2;SDS_P1;SDS_P2;PMS_P1;PMS_P2;Temp;Humidity;BMP_temperature;BMP_pressure;BME280_temperature;BME280_humidity;BME280_pressure;Samples;Min_cycle;Max_cycle;Signal;HPM_P1;HPM_P2
2021/11/28 13:16:22;;;;;;;4.35;1.30;;;;;;;;;;5019282;23;20560;-45
2021/11/28 13:18:52;;;;;;;8.05;1.48;;;;;;;;;;4961688;28;20888;-49
2021/11/28 13:21:25;;;;;;;8.18;1.80;;;;;;;;;;4963576;28;20468;-44
2021/11/28 13:23:53;;;;;;;8.40;1.45;;;;;;;;;;4962324;28;20467;-53
2021/11/28 13:26:23;;;;;;;6.97;1.33;;;;;;;;;;4942200;28;20397;-46
2021/11/28 13:28:50;;;;;;;5.82;1.20;;;;;;;;;;4959149;28;20374;-44
2021/11/28 13:31:21;;;;;;;6.28;1.35;;;;;;;;;;4939912;28;20421;-45
2021/11/28 13:33:58;;;;;;;6.83;1.30;;;;;;;;;;4969275;28;20408;-42
2021/11/28 13:36:44;;;;;;;6.18;1.30;;;;;;;;;;4954484;28;20431;-42
2021/11/28 13:39:15;;;;;;;4.80;1.20;;;;;;;;;;4953737;28;20381;-42
2021/11/28 13:41:41;;;;;;;5.40;1.50;;;;;;;;;;4954415;28;20440;-44
2021/11/28 13:44:11;;;;;;;4.27;1.10;;;;;;;;;;4958726;28;20491;-43
2021/11/28 13:46:37;;;;;;;5.00;1.20;;;;;;;;;;4958187;28;20479;-44
2021/11/28 13:49:06;;;;;;;4.60;1.20;;;;;;;;;;4975774;28;20392;-43
2021/11/28 13:51:50;;;;;;;4.28;1.17;;;;;;;;;;4974948;28;20427;-42
2021/11/28 13:54:22;;;;;;;5.57;1.20;;;;;;;;;;4958162;28;20399;-43
2021/11/28 13:56:50;;;;;;;5.57;1.33;;;;;;;;;;4968316;28;20411;-45
2021/11/28 13:59:23;;;;;;;3.60;0.93;;;;;;;;;;4958189;28;20411;-42
2021/11/28 14:02:08;;;;;;;5.85;1.20;;;;;;;;;;4957275;28;20458;-43
2021/11/28 14:04:40;;;;;;;3.53;0.95;;;;;;;;;;4975250;28;20478;-43
2021/11/28 14:07:29;;;;;;;3.83;1.00;;;;;;;;;;4958085;28;20385;-42
2021/11/28 14:10:10;;;;;;;5.05;1.20;;;;;;;;;;4963659;28;20971;-42
2021/11/28 14:12:39;;;;;;;3.50;1.20;;;;;;;;;;4974756;28;20435;-44
2021/11/28 14:15:23;;;;;;;5.07;1.10;;;;;;;;;;4956756;28;20511;-43
2021/11/28 14:17:58;;;;;;;2.60;0.85;;;;;;;;;;4957358;28;20911;-42
2021/11/28 14:20:31;;;;;;;4.13;0.90;;;;;;;;;;4957854;28;20393;-44
2021/11/28 14:23:03;;;;;;;2.78;1.15;;;;;;;;;;4957403;28;20404;-42
2021/11/28 14:25:45;;;;;;;4.70;1.20;;;;;;;;;;4974470;28;20399;-42
2021/11/28 14:28:14;;;;;;;3.17;1.00;;;;;;;;;;4974773;28;20392;-42
2021/11/28 14:31:00;;;;;;;3.10;1.10;;;;;;;;;;4957461;28;20840;-49
2021/11/28 21:04:20;;;;;;;42.97;37.08;;;;;;;;;;5149260;23;20420;-45
2021/11/28 21:06:47;;;;;;;44.15;36.63;;;;;;;;;;4952139;28;20423;-43
2021/11/28 21:09:14;;;;;;;42.00;34.30;;;;;;;;;;4955523;28;20392;-44
2021/11/28 21:11:41;;;;;;;41.08;34.30;;;;;;;;;;4954760;28;20482;-43
2021/11/28 21:14:10;;;;;;;39.88;34.00;;;;;;;;;;4950888;28;20395;-45
2021/11/28 21:16:37;;;;;;;38.92;33.03;;;;;;;;;;4971528;28;20435;-45
2021/11/28 21:19:05;;;;;;;40.53;31.23;;;;;;;;;;4971841;28;20888;-46
2021/11/28 21:21:32;;;;;;;36.25;31.23;;;;;;;;;;4954657;28;20431;-44
2021/11/28 21:23:58;;;;;;;38.70;30.85;;;;;;;;;;4969557;28;20403;-46
2021/11/28 21:26:24;;;;;;;36.35;30.17;;;;;;;;;;4958574;28;20394;-47
2021/11/28 21:28:51;;;;;;;37.05;29.65;;;;;;;;;;4976216;28;20372;-46
2021/11/28 21:31:18;;;;;;;40.10;30.05;;;;;;;;;;4967889;28;20415;-43
2021/11/28 21:33:44;;;;;;;34.77;29.77;;;;;;;;;;4971586;28;20383;-44
2021/11/28 21:36:11;;;;;;;34.00;28.95;;;;;;;;;;4962590;28;20887;-48
2021/11/28 21:38:39;;;;;;;33.28;28.70;;;;;;;;;;4991161;28;20381;-50
2021/11/28 21:41:06;;;;;;;32.10;28.58;;;;;;;;;;4991790;28;20382;-48
2021/11/28 21:43:32;;;;;;;31.33;27.43;;;;;;;;;;4990071;28;20448;-47
2021/11/28 21:45:59;;;;;;;32.70;28.48;;;;;;;;;;4973821;28;20449;-45
2021/11/28 21:48:26;;;;;;;31.33;26.92;;;;;;;;;;4964660;28;20378;-48
2021/11/28 21:50:52;;;;;;;32.22;27.30;;;;;;;;;;4949284;28;20401;-49
2021/11/28 21:53:19;;;;;;;31.67;27.50;;;;;;;;;;4960963;28;20985;-45
2021/11/28 21:55:45;;;;;;;30.33;26.35;;;;;;;;;;4977523;28;20395;-43
2021/11/28 21:58:13;;;;;;;28.90;25.40;;;;;;;;;;4959700;28;20996;-43
2021/11/28 22:00:40;;;;;;;29.58;26.20;;;;;;;;;;4967816;28;20433;-44
2021/11/28 22:03:08;;;;;;;29.88;24.52;;;;;;;;;;4972806;28;20517;-49
